createdAt,value
2023-02-15T00:02:03.701Z,90.50
2023-02-15T00:04:45.723Z,92.63
2023-02-15T00:07:16.884Z,94.53
2023-02-15T00:09:46.784Z,94.97
2023-02-15T00:12:15.141Z,91.63
2023-02-15T00:14:43.500Z,93.67
2023-02-15T00:17:11.697Z,97.93
2023-02-15T00:19:40.991Z,95.37
2023-02-15T00:22:09.559Z,93.60
2023-02-15T00:24:38.989Z,93.53
2023-02-15T00:27:08.102Z,92.77
2023-02-15T00:29:36.142Z,94.43
2023-02-15T00:32:04.319Z,94.10
2023-02-15T00:34:32.416Z,95.80
2023-02-15T00:37:00.481Z,95.87
2023-02-15T00:39:29.905Z,97.07
2023-02-15T00:41:59.740Z,96.17
2023-02-15T00:44:27.829Z,96.60
2023-02-15T00:46:55.921Z,97.67
2023-02-15T00:49:24.028Z,96.73
2023-02-15T00:51:52.095Z,100.80
2023-02-15T00:54:20.276Z,99.37
2023-02-15T00:56:48.321Z,98.23
2023-02-15T00:59:17.759Z,98.03
2023-02-15T01:01:45.772Z,99.30
2023-02-15T01:04:13.840Z,99.23
2023-02-15T01:06:41.941Z,99.40
2023-02-15T01:09:10.068Z,101.97
2023-02-15T01:11:38.064Z,102.70
2023-02-15T01:14:06.427Z,104.47
2023-02-15T01:16:35.882Z,101.33
2023-02-15T01:19:04.654Z,100.50
2023-02-15T01:21:35.361Z,97.90
2023-02-15T01:24:03.529Z,99.87
2023-02-15T01:26:31.566Z,99.50
2023-02-15T01:28:59.628Z,100.77
2023-02-15T01:31:27.902Z,103.50
2023-02-15T01:33:57.457Z,99.63
2023-02-15T01:36:25.454Z,98.80
2023-02-15T01:38:53.547Z,103.27
2023-02-15T01:41:28.631Z,100.77
2023-02-15T01:43:58.234Z,103.23
2023-02-15T01:46:30.900Z,101.43
2023-02-15T01:49:05.204Z,101.23
2023-02-15T01:51:38.260Z,103.13
2023-02-15T01:54:11.883Z,103.57
2023-02-15T01:56:41.673Z,101.83
2023-02-15T01:59:15.653Z,101.30
2023-02-15T02:01:43.789Z,103.37
2023-02-15T02:04:18.400Z,104.27
2023-02-15T02:06:48.726Z,105.30
2023-02-15T02:09:17.173Z,105.73
2023-02-15T02:11:48.622Z,103.30
2023-02-15T02:14:17.350Z,103.30
2023-02-15T02:16:54.331Z,103.90
2023-02-15T02:19:47.987Z,104.97
2023-02-15T02:22:48.851Z,103.67
2023-02-15T02:25:55.127Z,102.87
2023-02-15T02:28:49.465Z,106.03
2023-02-15T02:31:34.699Z,105.20
2023-02-15T02:34:07.849Z,101.20
2023-02-15T02:36:43.966Z,103.33
2023-02-15T02:39:23.949Z,104.63
2023-02-15T02:41:58.437Z,103.53
2023-02-15T02:44:31.163Z,106.43
2023-02-15T02:47:04.494Z,98.37
2023-02-15T02:49:35.993Z,97.90
2023-02-15T02:52:06.691Z,98.97
2023-02-15T02:54:36.461Z,99.17
2023-02-15T02:57:08.120Z,103.30
2023-02-15T02:59:41.113Z,103.70
2023-02-15T03:02:15.468Z,101.83
2023-02-15T03:04:49.647Z,101.07
2023-02-15T03:07:23.017Z,103.13
2023-02-15T03:09:53.801Z,95.60
2023-02-15T03:12:24.519Z,96.53
2023-02-15T03:14:54.665Z,97.50
2023-02-15T03:17:25.508Z,98.93
2023-02-15T03:19:59.433Z,98.53
2023-02-15T03:22:32.161Z,96.13
2023-02-15T03:25:04.218Z,97.43
2023-02-15T03:27:37.387Z,98.07
2023-02-15T03:30:08.368Z,95.30
2023-02-15T03:32:38.560Z,94.80
2023-02-15T03:35:08.801Z,95.13
2023-02-15T03:37:42.834Z,92.27
2023-02-15T03:40:37.229Z,94.20
2023-02-15T03:43:13.226Z,98.07
2023-02-15T03:45:55.592Z,96.23
2023-02-15T03:48:27.534Z,97.47
2023-02-15T03:51:18.177Z,95.47
2023-02-15T03:53:49.239Z,93.30
2023-02-15T03:56:17.317Z,96.40
2023-02-15T03:59:03.046Z,95.93
2023-02-15T04:01:54.577Z,99.10
2023-02-15T04:04:25.687Z,98.80
2023-02-15T04:06:55.139Z,99.27
2023-02-15T04:09:40.742Z,96.70
2023-02-15T04:12:08.992Z,97.27
2023-02-15T04:14:54.699Z,98.93
2023-02-15T04:17:22.731Z,93.80
2023-02-15T04:20:08.504Z,96.97
2023-02-15T04:22:55.545Z,95.83
2023-02-15T04:25:23.752Z,99.37
2023-02-15T04:27:53.557Z,94.70
2023-02-15T04:30:23.667Z,95.80
2023-02-15T04:32:53.089Z,93.33
2023-02-15T04:35:21.359Z,92.80
2023-02-15T04:37:50.952Z,91.20
2023-02-15T04:40:19.837Z,88.20
2023-02-15T04:42:50.524Z,92.37
2023-02-15T04:45:19.074Z,91.13
2023-02-15T04:47:47.233Z,93.80
2023-02-15T04:50:15.302Z,96.20
2023-02-15T04:52:43.309Z,93.43
2023-02-15T04:55:12.846Z,92.47
2023-02-15T04:57:40.906Z,94.10
2023-02-15T05:00:10.691Z,96.97
2023-02-15T05:02:38.863Z,96.10
2023-02-15T05:05:08.133Z,96.27
2023-02-15T05:07:36.143Z,95.77
2023-02-15T05:10:04.357Z,93.17
2023-02-15T05:12:33.964Z,93.47
2023-02-15T05:15:02.020Z,89.83
2023-02-15T05:17:30.099Z,88.37
2023-02-15T05:19:58.155Z,92.47
2023-02-15T05:22:26.266Z,91.43
2023-02-15T05:25:11.620Z,87.93
2023-02-15T05:27:58.462Z,89.13
2023-02-15T05:30:26.839Z,85.57
2023-02-15T05:32:55.133Z,84.27
2023-02-15T05:35:23.339Z,78.40
2023-02-15T05:37:51.442Z,80.27
2023-02-15T05:40:19.747Z,84.80
2023-02-15T05:42:49.150Z,81.23
2023-02-15T05:45:17.413Z,88.37
2023-02-15T05:47:45.661Z,84.57
2023-02-15T05:50:13.774Z,80.03
2023-02-15T05:52:42.112Z,81.63
2023-02-15T05:55:10.759Z,86.23
2023-02-15T05:57:38.780Z,84.93
2023-02-15T06:00:10.854Z,78.90
2023-02-15T06:02:39.557Z,82.83
2023-02-15T06:05:08.532Z,86.70
2023-02-15T06:07:36.872Z,84.07
2023-02-15T06:10:05.529Z,86.67
2023-02-15T06:12:33.589Z,89.60
2023-02-15T06:15:01.612Z,87.50
2023-02-15T06:17:31.102Z,92.20
2023-02-15T06:19:59.200Z,87.90
2023-02-15T06:22:27.375Z,89.20
2023-02-15T06:24:55.461Z,83.37
2023-02-15T06:27:23.531Z,83.97
2023-02-15T06:29:51.604Z,84.27
2023-02-15T06:32:19.678Z,79.70
2023-02-15T06:34:49.092Z,81.90
2023-02-15T06:37:17.146Z,99.07
2023-02-15T06:39:45.755Z,105.50
2023-02-15T06:42:13.861Z,104.33
2023-02-15T06:44:42.127Z,99.70
2023-02-15T06:47:10.144Z,98.53
2023-02-15T06:49:38.207Z,102.83
2023-02-15T06:52:07.942Z,101.73
2023-02-15T06:54:36.015Z,99.57
2023-02-15T06:57:04.276Z,95.57
2023-02-15T06:59:32.398Z,97.63
2023-02-15T07:02:00.433Z,92.67
2023-02-15T07:04:29.727Z,99.85
2023-02-15T07:06:58.002Z,96.10
2023-02-15T07:09:27.719Z,93.43
2023-02-15T07:12:13.280Z,99.30
2023-02-15T07:14:41.762Z,99.83
2023-02-15T07:17:27.426Z,101.50
2023-02-15T07:19:57.879Z,97.33
2023-02-15T07:22:25.962Z,99.83
2023-02-15T07:24:55.807Z,96.47
2023-02-15T07:27:23.944Z,97.83
2023-02-15T07:29:52.054Z,100.30
2023-02-15T07:32:20.585Z,100.13
2023-02-15T07:34:48.666Z,95.53
2023-02-15T07:37:16.732Z,98.43
2023-02-15T07:39:44.806Z,100.13
2023-02-15T07:42:14.603Z,97.77
2023-02-15T07:44:42.678Z,102.57
2023-02-15T07:47:10.728Z,104.53
2023-02-15T07:49:39.142Z,104.80
2023-02-15T07:52:07.224Z,110.10
2023-02-15T07:54:35.469Z,110.70
2023-02-15T07:57:03.958Z,112.60
2023-02-15T07:59:33.390Z,114.40
2023-02-15T08:02:01.508Z,111.50
2023-02-15T08:04:29.639Z,115.47
2023-02-15T08:06:57.677Z,113.20
2023-02-15T08:09:25.765Z,113.20
2023-02-15T08:11:53.911Z,111.13
2023-02-15T08:14:23.068Z,111.77
2023-02-15T08:16:54.001Z,113.07
2023-02-15T08:19:24.451Z,109.57
2023-02-15T08:21:54.531Z,109.83
2023-02-15T08:24:24.694Z,113.37
2023-02-15T08:26:54.797Z,110.43
2023-02-15T08:29:24.436Z,109.57
2023-02-15T08:31:55.920Z,110.87
2023-02-15T08:34:24.218Z,110.20
2023-02-15T08:36:52.358Z,110.83
2023-02-15T08:39:20.528Z,111.57
2023-02-15T08:41:49.842Z,111.30
2023-02-15T08:44:19.602Z,109.30
2023-02-15T08:46:49.075Z,102.50
2023-02-15T08:49:20.354Z,96.10
2023-02-15T08:51:49.457Z,94.67
2023-02-15T08:54:21.650Z,92.50
2023-02-15T08:56:50.538Z,86.23
2023-02-15T08:59:20.537Z,90.23
2023-02-15T09:01:50.049Z,95.67
2023-02-15T09:04:19.913Z,87.57
2023-02-15T09:06:49.744Z,84.53
2023-02-15T09:09:18.657Z,80.50
2023-02-15T09:11:49.089Z,72.60
2023-02-15T09:14:18.946Z,77.30
2023-02-15T09:16:50.794Z,73.70
2023-02-15T09:19:22.656Z,71.37
2023-02-15T09:21:51.235Z,69.73
2023-02-15T09:24:20.048Z,69.63
2023-02-15T09:26:49.535Z,69.47
2023-02-15T09:29:18.943Z,67.93
2023-02-15T09:31:49.727Z,65.80
2023-02-15T09:34:21.175Z,66.20
2023-02-15T09:36:49.925Z,60.60
2023-02-15T09:39:19.482Z,62.93
2023-02-15T09:42:18.414Z,65.57
2023-02-15T09:45:12.025Z,65.40
2023-02-15T09:47:58.945Z,58.13
2023-02-15T09:50:39.961Z,54.37
2023-02-15T09:53:29.617Z,49.93
2023-02-15T09:56:04.774Z,43.80
2023-02-15T09:58:41.896Z,45.50
2023-02-15T10:01:20.655Z,43.77
2023-02-15T10:04:04.565Z,41.47
2023-02-15T10:06:43.243Z,43.10
2023-02-15T10:09:36.121Z,41.23
2023-02-15T10:12:26.537Z,36.23
2023-02-15T10:15:32.928Z,34.53
2023-02-15T10:18:17.468Z,30.67
2023-02-15T10:20:55.101Z,30.47
2023-02-15T10:23:38.410Z,29.07
2023-02-15T10:26:15.051Z,28.73
2023-02-15T10:28:50.184Z,28.30
2023-02-15T10:31:29.663Z,26.43
2023-02-15T10:34:17.281Z,27.43
2023-02-15T10:37:09.751Z,23.63
2023-02-15T10:39:48.307Z,21.90
2023-02-15T10:42:24.334Z,23.23
2023-02-15T10:45:06.382Z,21.53
2023-02-15T10:47:47.269Z,20.60
2023-02-15T10:50:25.866Z,19.57
2023-02-15T10:53:25.464Z,20.60
2023-02-15T10:55:59.401Z,20.13
2023-02-15T10:58:40.703Z,19.97
2023-02-15T11:01:20.927Z,20.60
2023-02-15T11:04:10.353Z,17.97
2023-02-15T11:06:41.678Z,19.20
2023-02-15T11:09:16.513Z,19.00
2023-02-15T11:11:50.297Z,17.57
2023-02-15T11:14:25.713Z,19.43
2023-02-15T11:16:59.138Z,16.37
2023-02-15T11:19:33.860Z,18.30
2023-02-15T11:22:04.908Z,17.33
2023-02-15T11:24:38.318Z,17.97
2023-02-15T11:27:20.451Z,17.10
2023-02-15T11:29:56.910Z,17.40
2023-02-15T11:32:27.962Z,16.60
2023-02-15T11:35:00.300Z,17.90
2023-02-15T11:37:35.613Z,17.63
2023-02-15T11:40:08.590Z,16.63
2023-02-15T11:42:38.197Z,18.07
2023-02-15T11:45:20.006Z,18.40
2023-02-15T11:47:48.097Z,17.20
2023-02-15T11:50:19.300Z,17.60
2023-02-15T11:52:47.383Z,17.20
2023-02-15T11:55:19.836Z,17.87
2023-02-15T11:57:55.840Z,17.47
2023-02-15T12:00:36.821Z,17.27
2023-02-15T12:03:16.333Z,17.53
2023-02-15T12:05:48.991Z,17.10
2023-02-15T12:08:21.997Z,18.10
2023-02-15T12:11:04.752Z,17.00
2023-02-15T12:13:34.658Z,17.67
2023-02-15T12:16:13.760Z,16.93
2023-02-15T12:18:45.412Z,17.20
2023-02-15T12:21:14.790Z,18.33
2023-02-15T12:23:49.205Z,17.97
2023-02-15T12:26:25.026Z,18.10
2023-02-15T12:28:58.860Z,17.30
2023-02-15T12:31:31.109Z,18.83
2023-02-15T12:34:02.801Z,17.13
2023-02-15T12:36:34.218Z,17.73
2023-02-15T12:39:21.641Z,16.97
2023-02-15T12:42:01.565Z,17.80
2023-02-15T12:44:32.597Z,16.77
2023-02-15T12:47:03.945Z,18.83
2023-02-15T12:49:33.584Z,18.23
2023-02-15T12:52:03.544Z,17.07
2023-02-15T12:54:35.642Z,17.03
2023-02-15T12:57:26.746Z,16.97
2023-02-15T12:59:59.240Z,17.47
2023-02-15T13:02:36.692Z,17.80
2023-02-15T13:05:19.524Z,16.47
2023-02-15T13:07:51.764Z,16.70
2023-02-15T13:10:29.368Z,17.03
2023-02-15T13:12:58.970Z,17.13
2023-02-15T13:15:33.601Z,16.73
2023-02-15T13:18:02.971Z,16.87
2023-02-15T13:20:31.681Z,17.70
2023-02-15T13:23:05.342Z,17.77
2023-02-15T13:25:48.221Z,16.50
2023-02-15T13:28:19.041Z,16.10
2023-02-15T13:30:49.814Z,16.40
2023-02-15T13:33:27.261Z,16.97
2023-02-15T13:36:04.046Z,16.80
2023-02-15T13:38:48.306Z,16.93
2023-02-15T13:41:21.782Z,19.23
2023-02-15T13:43:59.976Z,16.30
2023-02-15T13:46:47.543Z,18.43
2023-02-15T13:49:23.751Z,17.83
2023-02-15T13:52:00.507Z,17.90
2023-02-15T13:54:45.896Z,18.20
2023-02-15T13:57:40.640Z,16.77
2023-02-15T14:00:21.607Z,17.50
2023-02-15T14:03:21.408Z,16.60
2023-02-15T14:06:12.112Z,17.43
2023-02-15T14:08:54.932Z,19.33
2023-02-15T14:11:32.606Z,15.77
2023-02-15T14:14:27.543Z,16.97
2023-02-15T14:17:07.711Z,17.07
2023-02-15T14:19:46.631Z,17.20
2023-02-15T14:22:25.049Z,16.37
2023-02-15T14:25:04.880Z,16.57
2023-02-15T14:27:45.513Z,17.37
2023-02-15T14:30:17.995Z,16.90
2023-02-15T14:32:50.461Z,18.07
2023-02-15T14:35:21.355Z,19.70
2023-02-15T14:37:59.727Z,18.80
2023-02-15T14:40:53.842Z,17.53
2023-02-15T14:43:31.644Z,17.33
2023-02-15T14:46:08.595Z,18.20
2023-02-15T14:48:43.544Z,17.13
2023-02-15T14:51:51.796Z,18.50
2023-02-15T14:55:07.755Z,17.77
2023-02-15T14:57:37.480Z,17.23
2023-02-15T15:00:35.629Z,18.13
2023-02-15T15:03:04.058Z,19.10
2023-02-15T15:05:36.429Z,17.77
2023-02-15T15:08:07.328Z,18.13
2023-02-15T15:10:42.458Z,17.70
2023-02-15T15:13:54.768Z,17.03
2023-02-15T15:16:50.498Z,16.70
2023-02-15T15:20:13.960Z,17.33
2023-02-15T15:22:43.320Z,17.33
2023-02-15T15:25:35.427Z,17.63
2023-02-15T15:28:04.510Z,17.50
2023-02-15T15:30:52.325Z,18.23
2023-02-15T15:33:56.861Z,17.77
2023-02-15T15:36:58.390Z,19.07
2023-02-15T15:39:52.600Z,18.27
2023-02-15T15:42:34.601Z,18.93
2023-02-15T15:45:33.878Z,17.23
2023-02-15T15:48:27.621Z,19.30
2023-02-15T15:50:58.812Z,17.60
2023-02-15T15:53:29.486Z,17.23
2023-02-15T15:56:03.378Z,18.17
2023-02-15T15:58:33.128Z,17.50
2023-02-15T16:01:06.566Z,19.17
2023-02-15T16:03:34.704Z,18.57
2023-02-15T16:06:03.006Z,18.67
2023-02-15T16:08:33.332Z,17.50
2023-02-15T16:11:17.767Z,19.00
2023-02-15T16:13:47.607Z,17.93
2023-02-15T16:16:23.205Z,17.00
2023-02-15T16:18:52.133Z,16.93
2023-02-15T16:21:24.134Z,17.87
2023-02-15T16:24:15.678Z,18.10
2023-02-15T16:27:15.372Z,19.27
2023-02-15T16:29:44.848Z,17.13
2023-02-15T16:32:20.452Z,17.43
2023-02-15T16:34:56.411Z,19.90
2023-02-15T16:37:28.142Z,18.90
2023-02-15T16:39:57.287Z,17.20
2023-02-15T16:42:25.702Z,16.57
2023-02-15T16:45:01.342Z,16.97
2023-02-15T16:47:32.704Z,16.93
2023-02-15T16:50:04.265Z,17.03
2023-02-15T16:52:32.881Z,16.43
2023-02-15T16:55:03.942Z,19.13
2023-02-15T16:57:35.989Z,19.10
2023-02-15T17:00:08.296Z,17.93
2023-02-15T17:02:55.102Z,18.60
2023-02-15T17:05:25.029Z,17.73
2023-02-15T17:08:07.748Z,18.63
2023-02-15T17:10:38.400Z,16.87
2023-02-15T17:13:11.768Z,19.07
2023-02-15T17:15:42.732Z,19.73
2023-02-15T17:18:17.489Z,17.50
2023-02-15T17:20:46.802Z,19.20
2023-02-15T17:23:28.155Z,19.17
2023-02-15T17:25:56.949Z,18.13
2023-02-15T17:28:28.232Z,18.30
2023-02-15T17:30:59.412Z,18.87
2023-02-15T17:33:37.638Z,19.80
2023-02-15T17:36:10.705Z,18.23
2023-02-15T17:38:39.749Z,17.43
2023-02-15T17:41:08.102Z,20.37
2023-02-15T17:43:36.165Z,18.47
2023-02-15T17:46:05.919Z,19.97
2023-02-15T17:48:37.374Z,17.93
2023-02-15T17:51:09.032Z,20.20
2023-02-15T17:53:37.994Z,18.23
2023-02-15T17:56:10.647Z,18.83
2023-02-15T17:58:39.358Z,18.57
2023-02-15T18:01:33.938Z,19.53
2023-02-15T18:04:19.521Z,18.83
2023-02-15T18:07:05.082Z,20.63
2023-02-15T18:09:50.779Z,17.70
2023-02-15T18:12:22.538Z,18.30
2023-02-15T18:14:51.350Z,18.97
2023-02-15T18:17:23.422Z,18.87
2023-02-15T18:19:51.591Z,21.10
2023-02-15T18:22:20.446Z,17.77
2023-02-15T18:24:49.478Z,19.70
2023-02-15T18:27:18.105Z,19.23
2023-02-15T18:29:46.211Z,17.97
2023-02-15T18:32:19.058Z,18.93
2023-02-15T18:34:49.585Z,21.13
2023-02-15T18:37:20.714Z,22.10
2023-02-15T18:39:50.587Z,21.47
2023-02-15T18:42:22.414Z,20.77
2023-02-15T18:44:50.940Z,20.67
2023-02-15T18:47:18.976Z,21.67
2023-02-15T18:49:48.455Z,24.35
2023-02-15T18:52:18.288Z,21.50
2023-02-15T18:54:46.967Z,21.33
2023-02-15T18:57:16.440Z,19.73
2023-02-15T18:59:44.552Z,18.87
2023-02-15T19:02:14.590Z,20.40
2023-02-15T19:04:42.764Z,19.00
2023-02-15T19:07:18.801Z,20.70
2023-02-15T19:09:49.275Z,19.40
2023-02-15T19:12:19.498Z,19.33
2023-02-15T19:14:47.891Z,21.53
2023-02-15T19:17:18.288Z,21.13
2023-02-15T19:19:47.073Z,21.80
2023-02-15T19:22:19.153Z,22.90
2023-02-15T19:24:49.157Z,20.10
2023-02-15T19:27:22.365Z,20.47
2023-02-15T19:29:51.027Z,21.50
2023-02-15T19:32:19.242Z,21.20
2023-02-15T19:34:47.358Z,20.70
2023-02-15T19:37:24.517Z,20.60
2023-02-15T19:39:52.786Z,21.97
2023-02-15T19:42:25.018Z,19.77
2023-02-15T19:44:54.524Z,21.17
2023-02-15T19:47:22.984Z,20.53
2023-02-15T19:49:51.084Z,19.23
2023-02-15T19:52:24.106Z,20.67
2023-02-15T19:54:54.002Z,23.70
2023-02-15T19:57:22.438Z,22.73
2023-02-15T19:59:50.682Z,23.37
2023-02-15T20:02:20.262Z,23.07
2023-02-15T20:04:48.437Z,22.30
2023-02-15T20:07:23.762Z,22.17
2023-02-15T20:09:52.057Z,21.67
2023-02-15T20:12:22.692Z,22.10
2023-02-15T20:14:51.107Z,21.70
2023-02-15T20:17:19.943Z,22.37
2023-02-15T20:19:48.161Z,23.10
2023-02-15T20:22:25.220Z,24.10
2023-02-15T20:24:55.569Z,23.10
2023-02-15T20:27:24.736Z,22.77
2023-02-15T20:29:56.681Z,23.47
2023-02-15T20:32:25.326Z,23.77
2023-02-15T20:34:53.438Z,23.20
2023-02-15T20:37:26.450Z,23.60
2023-02-15T20:39:54.588Z,24.83
2023-02-15T20:42:22.785Z,24.87
2023-02-15T20:44:50.872Z,23.07
2023-02-15T20:47:18.972Z,24.73
2023-02-15T20:49:47.042Z,25.17
2023-02-15T20:52:20.110Z,24.43
2023-02-15T20:54:49.569Z,24.53
2023-02-15T20:57:17.712Z,24.60
2023-02-15T20:59:45.926Z,24.70
2023-02-15T21:02:18.972Z,23.87
2023-02-15T21:04:47.586Z,24.33
2023-02-15T21:07:17.084Z,25.43
2023-02-15T21:09:45.186Z,24.80
2023-02-15T21:12:16.706Z,24.47
2023-02-15T21:14:45.098Z,25.50
2023-02-15T21:17:13.661Z,24.43
2023-02-15T21:19:42.106Z,24.20
2023-02-15T21:22:12.957Z,24.80
2023-02-15T21:24:45.545Z,25.97
2023-02-15T21:27:16.097Z,26.03
2023-02-15T21:29:44.119Z,29.97
2023-02-15T21:32:12.536Z,27.00
2023-02-15T21:34:40.978Z,28.13
2023-02-15T21:37:27.320Z,28.27
2023-02-15T21:39:55.403Z,27.70
2023-02-15T21:42:50.815Z,29.67
2023-02-15T21:45:37.132Z,28.73
2023-02-15T21:48:05.516Z,28.27
2023-02-15T21:51:04.661Z,31.27
2023-02-15T21:53:35.142Z,30.07
2023-02-15T21:56:05.978Z,30.33
2023-02-15T21:58:37.845Z,30.83
2023-02-15T22:01:07.448Z,30.37
2023-02-15T22:03:37.456Z,29.20
2023-02-15T22:06:06.534Z,30.70
2023-02-15T22:08:35.072Z,30.07
2023-02-15T22:11:03.420Z,32.67
2023-02-15T22:13:33.921Z,30.80
2023-02-15T22:16:04.074Z,30.90
2023-02-15T22:18:34.253Z,33.13
2023-02-15T22:21:04.283Z,32.90
2023-02-15T22:23:32.764Z,31.17
2023-02-15T22:26:06.148Z,33.10
2023-02-15T22:28:36.911Z,33.33
2023-02-15T22:31:11.578Z,34.40
2023-02-15T22:33:39.710Z,33.07
2023-02-15T22:36:20.849Z,33.87
2023-02-15T22:38:48.898Z,32.57
2023-02-15T22:41:18.086Z,33.07
2023-02-15T22:43:48.172Z,36.47
2023-02-15T22:46:20.147Z,34.20
2023-02-15T22:48:48.871Z,33.87
2023-02-15T22:51:17.953Z,35.07
2023-02-15T22:53:46.180Z,34.00
2023-02-15T22:56:20.790Z,34.57
2023-02-15T22:58:50.441Z,34.80
2023-02-15T23:01:25.624Z,34.83
2023-02-15T23:03:53.724Z,34.97
2023-02-15T23:06:22.815Z,37.13
2023-02-15T23:08:50.844Z,35.20
2023-02-15T23:11:20.068Z,38.03
2023-02-15T23:13:50.404Z,37.40
2023-02-15T23:16:19.169Z,39.17
2023-02-15T23:18:49.261Z,39.67
2023-02-15T23:21:21.184Z,39.17
2023-02-15T23:23:51.172Z,40.27
2023-02-15T23:26:21.715Z,40.53
2023-02-15T23:28:50.952Z,42.10
2023-02-15T23:31:21.772Z,41.60
2023-02-15T23:33:52.499Z,43.70
2023-02-15T23:36:27.147Z,44.60
2023-02-15T23:38:56.805Z,44.30
2023-02-15T23:41:26.854Z,45.63
2023-02-15T23:43:57.389Z,44.50
2023-02-15T23:46:28.988Z,46.03
2023-02-15T23:48:58.475Z,47.07
2023-02-15T23:51:31.805Z,46.73
2023-02-15T23:54:00.280Z,47.87
2023-02-15T23:56:28.370Z,48.37
2023-02-15T23:58:56.501Z,50.70
